sensor_id;sensor_type;location;lat;lon;timestamp;pressure;altitude;pressure_sealevel;temperature;humidity
40948;BME280;49382;-25.924;28.194;2023-06-19T00:01:18;85349.94;;;14.34;25.94
40948;BME280;49382;-25.924;28.194;2023-06-19T00:03:43;85352.55;;;15.28;24.88
40948;BME280;49382;-25.924;28.194;2023-06-19T00:06:08;85352.68;;;14.15;26.17
40948;BME280;49382;-25.924;28.194;2023-06-19T00:08:33;85353.07;;;13.48;27.38
40948;BME280;49382;-25.924;28.194;2023-06-19T00:10:58;85351.96;;;14.55;26.58
40948;BME280;49382;-25.924;28.194;2023-06-19T00:13:24;85350.21;;;15.28;26.00
40948;BME280;49382;-25.924;28.194;2023-06-19T00:15:49;85348.38;;;15.67;25.13
40948;BME280;49382;-25.924;28.194;2023-06-19T00:18:14;85347.14;;;14.10;26.30
40948;BME280;49382;-25.924;28.194;2023-06-19T00:20:40;85343.07;;;15.70;24.81
40948;BME280;49382;-25.924;28.194;2023-06-19T00:23:06;85340.73;;;14.09;26.27
40948;BME280;49382;-25.924;28.194;2023-06-19T00:25:31;85338.39;;;14.65;25.82
40948;BME280;49382;-25.924;28.194;2023-06-19T00:27:57;85339.23;;;14.91;24.49
40948;BME280;49382;-25.924;28.194;2023-06-19T00:30:23;85331.31;;;14.25;25.63
40948;BME280;49382;-25.924;28.194;2023-06-19T00:32:48;85331.01;;;12.64;27.22
40948;BME280;49382;-25.924;28.194;2023-06-19T00:35:15;85326.73;;;11.59;29.38
40948;BME280;49382;-25.924;28.194;2023-06-19T00:37:41;85323.87;;;12.71;28.64
40948;BME280;49382;-25.924;28.194;2023-06-19T00:40:07;85318.25;;;12.59;28.38
40948;BME280;49382;-25.924;28.194;2023-06-19T00:42:30;85317.92;;;13.24;27.79
40948;BME280;49382;-25.924;28.194;2023-06-19T00:44:55;85307.97;;;12.99;27.45
40948;BME280;49382;-25.924;28.194;2023-06-19T00:47:21;85304.49;;;13.84;27.50
40948;BME280;49382;-25.924;28.194;2023-06-19T00:49:46;85303.79;;;14.66;25.54
40948;BME280;49382;-25.924;28.194;2023-06-19T00:52:12;85298.40;;;14.02;25.79
40948;BME280;49382;-25.924;28.194;2023-06-19T00:54:37;85298.11;;;12.24;28.35
40948;BME280;49382;-25.924;28.194;2023-06-19T00:57:02;85297.94;;;12.19;28.75
40948;BME280;49382;-25.924;28.194;2023-06-19T00:59:27;85298.94;;;13.17;28.57
40948;BME280;49382;-25.924;28.194;2023-06-19T01:01:53;85296.71;;;13.45;27.71
40948;BME280;49382;-25.924;28.194;2023-06-19T01:04:18;85299.20;;;13.16;27.10
40948;BME280;49382;-25.924;28.194;2023-06-19T01:06:50;85300.96;;;8.87;31.85
40948;BME280;49382;-25.924;28.194;2023-06-19T01:09:13;85306.09;;;10.74;30.86
40948;BME280;49382;-25.924;28.194;2023-06-19T01:11:41;85309.56;;;12.16;29.59
40948;BME280;49382;-25.924;28.194;2023-06-19T01:14:02;85310.34;;;11.66;30.40
40948;BME280;49382;-25.924;28.194;2023-06-19T01:16:25;85311.85;;;13.04;28.60
40948;BME280;49382;-25.924;28.194;2023-06-19T01:18:51;85311.82;;;12.73;28.38
40948;BME280;49382;-25.924;28.194;2023-06-19T01:21:18;85307.41;;;12.36;28.49
40948;BME280;49382;-25.924;28.194;2023-06-19T01:23:41;85304.19;;;12.18;28.72
40948;BME280;49382;-25.924;28.194;2023-06-19T01:26:07;85303.49;;;12.97;27.53
40948;BME280;49382;-25.924;28.194;2023-06-19T01:28:33;85298.08;;;13.33;26.93
40948;BME280;49382;-25.924;28.194;2023-06-19T01:30:59;85298.06;;;13.36;26.60
40948;BME280;49382;-25.924;28.194;2023-06-19T01:33:26;85298.11;;;14.11;25.66
40948;BME280;49382;-25.924;28.194;2023-06-19T01:35:49;85292.69;;;13.65;25.39
40948;BME280;49382;-25.924;28.194;2023-06-19T01:38:15;85296.33;;;13.13;26.09
40948;BME280;49382;-25.924;28.194;2023-06-19T01:40:40;85297.95;;;13.01;26.35
40948;BME280;49382;-25.924;28.194;2023-06-19T01:43:05;85296.48;;;13.61;25.63
40948;BME280;49382;-25.924;28.194;2023-06-19T01:45:30;85293.75;;;13.85;25.33
40948;BME280;49382;-25.924;28.194;2023-06-19T01:47:55;85288.57;;;13.59;25.44
40948;BME280;49382;-25.924;28.194;2023-06-19T01:50:21;85286.97;;;13.33;25.86
40948;BME280;49382;-25.924;28.194;2023-06-19T01:52:46;85284.16;;;13.67;25.37
40948;BME280;49382;-25.924;28.194;2023-06-19T01:55:10;85282.01;;;13.73;25.56
40948;BME280;49382;-25.924;28.194;2023-06-19T01:57:36;85274.50;;;14.06;25.35
40948;BME280;49382;-25.924;28.194;2023-06-19T02:00:01;85276.83;;;12.77;26.93
40948;BME280;49382;-25.924;28.194;2023-06-19T02:02:27;85278.30;;;13.18;27.12
40948;BME280;49382;-25.924;28.194;2023-06-19T02:04:52;85279.31;;;12.31;28.09
40948;BME280;49382;-25.924;28.194;2023-06-19T02:07:18;85284.61;;;12.68;27.90
40948;BME280;49382;-25.924;28.194;2023-06-19T02:09:43;85283.06;;;12.57;28.10
40948;BME280;49382;-25.924;28.194;2023-06-19T02:12:09;85280.25;;;11.23;29.36
40948;BME280;49382;-25.924;28.194;2023-06-19T02:14:35;85279.10;;;11.85;29.03
40948;BME280;49382;-25.924;28.194;2023-06-19T02:17:00;85276.45;;;12.26;28.51
40948;BME280;49382;-25.924;28.194;2023-06-19T02:19:26;85275.80;;;11.59;29.69
40948;BME280;49382;-25.924;28.194;2023-06-19T02:21:51;85271.29;;;11.22;30.06
40948;BME280;49382;-25.924;28.194;2023-06-19T02:24:16;85274.80;;;11.35;30.09
40948;BME280;49382;-25.924;28.194;2023-06-19T02:26:42;85274.56;;;11.66;29.74
40948;BME280;49382;-25.924;28.194;2023-06-19T02:29:07;85276.43;;;12.57;28.14
40948;BME280;49382;-25.924;28.194;2023-06-19T02:31:32;85276.91;;;12.80;27.90
40948;BME280;49382;-25.924;28.194;2023-06-19T02:33:58;85272.24;;;13.69;26.34
40948;BME280;49382;-25.924;28.194;2023-06-19T02:36:23;85272.80;;;12.12;28.18
40948;BME280;49382;-25.924;28.194;2023-06-19T02:38:49;85275.83;;;11.46;29.47
40948;BME280;49382;-25.924;28.194;2023-06-19T02:41:14;85275.56;;;11.66;29.57
40948;BME280;49382;-25.924;28.194;2023-06-19T02:43:41;85279.67;;;11.96;28.75
40948;BME280;49382;-25.924;28.194;2023-06-19T02:46:05;85280.30;;;12.09;28.93
40948;BME280;49382;-25.924;28.194;2023-06-19T02:48:30;85280.37;;;12.16;29.32
40948;BME280;49382;-25.924;28.194;2023-06-19T02:50:56;85281.53;;;12.21;29.13
40948;BME280;49382;-25.924;28.194;2023-06-19T02:53:21;85278.14;;;11.67;29.75
40948;BME280;49382;-25.924;28.194;2023-06-19T02:55:46;85282.26;;;12.42;28.76
40948;BME280;49382;-25.924;28.194;2023-06-19T02:58:12;85283.19;;;11.90;29.09
40948;BME280;49382;-25.924;28.194;2023-06-19T03:00:38;85281.57;;;11.92;29.63
40948;BME280;49382;-25.924;28.194;2023-06-19T03:03:03;85282.42;;;12.26;29.16
40948;BME280;49382;-25.924;28.194;2023-06-19T03:05:29;85284.43;;;11.44;29.95
40948;BME280;49382;-25.924;28.194;2023-06-19T03:07:54;85287.44;;;11.74;29.89
40948;BME280;49382;-25.924;28.194;2023-06-19T03:10:19;85289.49;;;11.49;30.10
40948;BME280;49382;-25.924;28.194;2023-06-19T03:12:45;85294.05;;;11.33;30.34
40948;BME280;49382;-25.924;28.194;2023-06-19T03:15:10;85293.91;;;11.72;29.84
40948;BME280;49382;-25.924;28.194;2023-06-19T03:17:35;85294.81;;;11.45;30.13
40948;BME280;49382;-25.924;28.194;2023-06-19T03:20:01;85294.74;;;11.57;30.17
40948;BME280;49382;-25.924;28.194;2023-06-19T03:22:26;85293.51;;;10.98;30.78
40948;BME280;49382;-25.924;28.194;2023-06-19T03:24:51;85296.61;;;11.69;29.98
40948;BME280;49382;-25.924;28.194;2023-06-19T03:27:17;85304.31;;;11.22;30.16
40948;BME280;49382;-25.924;28.194;2023-06-19T03:29:42;85306.84;;;11.18;30.66
40948;BME280;49382;-25.924;28.194;2023-06-19T03:32:08;85304.09;;;10.68;31.33
40948;BME280;49382;-25.924;28.194;2023-06-19T03:34:33;85306.72;;;11.24;30.79
40948;BME280;49382;-25.924;28.194;2023-06-19T03:36:58;85308.50;;;11.08;31.50
40948;BME280;49382;-25.924;28.194;2023-06-19T03:39:24;85309.92;;;11.36;30.75
40948;BME280;49382;-25.924;28.194;2023-06-19T03:41:49;85311.04;;;11.48;30.53
40948;BME280;49382;-25.924;28.194;2023-06-19T03:44:14;85317.62;;;11.73;30.15
40948;BME280;49382;-25.924;28.194;2023-06-19T03:46:40;85315.70;;;11.51;30.32
40948;BME280;49382;-25.924;28.194;2023-06-19T03:49:06;85314.37;;;10.87;31.12
40948;BME280;49382;-25.924;28.194;2023-06-19T03:51:31;85314.90;;;11.89;30.05
40948;BME280;49382;-25.924;28.194;2023-06-19T03:53:57;85318.42;;;12.29;29.30
40948;BME280;49382;-25.924;28.194;2023-06-19T03:56:22;85324.85;;;12.71;28.89
40948;BME280;49382;-25.924;28.194;2023-06-19T03:58:48;85321.47;;;12.21;29.00
40948;BME280;49382;-25.924;28.194;2023-06-19T04:01:13;85322.60;;;12.17;28.92
40948;BME280;49382;-25.924;28.194;2023-06-19T04:03:39;85323.39;;;11.55;29.65
40948;BME280;49382;-25.924;28.194;2023-06-19T04:06:04;85320.65;;;11.79;28.95
40948;BME280;49382;-25.924;28.194;2023-06-19T04:08:29;85316.09;;;13.70;27.09
40948;BME280;49382;-25.924;28.194;2023-06-19T04:10:55;85323.79;;;12.99;27.76
40948;BME280;49382;-25.924;28.194;2023-06-19T04:13:20;85323.48;;;12.27;28.50
40948;BME280;49382;-25.924;28.194;2023-06-19T04:15:46;85322.31;;;12.22;28.53
40948;BME280;49382;-25.924;28.194;2023-06-19T04:18:12;85326.03;;;11.57;29.14
40948;BME280;49382;-25.924;28.194;2023-06-19T04:20:37;85331.56;;;11.88;29.21
40948;BME280;49382;-25.924;28.194;2023-06-19T04:23:02;85331.14;;;12.68;28.70
40948;BME280;49382;-25.924;28.194;2023-06-19T04:25:28;85331.83;;;11.98;29.07
40948;BME280;49382;-25.924;28.194;2023-06-19T04:27:53;85333.18;;;11.31;30.05
40948;BME280;49382;-25.924;28.194;2023-06-19T04:30:18;85330.37;;;10.74;30.50
40948;BME280;49382;-25.924;28.194;2023-06-19T04:32:43;85330.54;;;10.59;30.96
40948;BME280;49382;-25.924;28.194;2023-06-19T04:35:09;85334.62;;;10.95;31.13
40948;BME280;49382;-25.924;28.194;2023-06-19T04:37:34;85334.21;;;11.00;31.03
40948;BME280;49382;-25.924;28.194;2023-06-19T04:39:59;85338.43;;;11.51;30.21
40948;BME280;49382;-25.924;28.194;2023-06-19T04:42:25;85337.02;;;12.31;29.57
40948;BME280;49382;-25.924;28.194;2023-06-19T04:44:50;85338.71;;;11.91;29.19
40948;BME280;49382;-25.924;28.194;2023-06-19T04:47:17;85339.78;;;11.99;29.51
40948;BME280;49382;-25.924;28.194;2023-06-19T04:49:41;85337.63;;;12.17;29.24
40948;BME280;49382;-25.924;28.194;2023-06-19T04:52:07;85341.02;;;11.79;29.55
40948;BME280;49382;-25.924;28.194;2023-06-19T04:54:31;85341.34;;;12.34;29.09
40948;BME280;49382;-25.924;28.194;2023-06-19T04:56:56;85345.45;;;11.85;29.38
40948;BME280;49382;-25.924;28.194;2023-06-19T04:59:22;85348.70;;;12.11;28.79
40948;BME280;49382;-25.924;28.194;2023-06-19T05:01:47;85352.82;;;12.06;28.95
40948;BME280;49382;-25.924;28.194;2023-06-19T05:04:13;85355.73;;;11.94;28.74
40948;BME280;49382;-25.924;28.194;2023-06-19T05:06:38;85357.43;;;12.01;28.71
40948;BME280;49382;-25.924;28.194;2023-06-19T05:09:04;85358.46;;;11.90;28.60
40948;BME280;49382;-25.924;28.194;2023-06-19T05:11:29;85363.75;;;11.83;28.50
40948;BME280;49382;-25.924;28.194;2023-06-19T05:13:54;85364.82;;;12.39;27.34
40948;BME280;49382;-25.924;28.194;2023-06-19T05:16:20;85365.27;;;13.01;26.89
40948;BME280;49382;-25.924;28.194;2023-06-19T05:18:45;85366.84;;;11.79;27.63
40948;BME280;49382;-25.924;28.194;2023-06-19T05:21:11;85365.54;;;12.53;27.80
40948;BME280;49382;-25.924;28.194;2023-06-19T05:23:37;85365.51;;;12.37;29.08
40948;BME280;49382;-25.924;28.194;2023-06-19T05:26:02;85362.28;;;10.97;30.39
40948;BME280;49382;-25.924;28.194;2023-06-19T05:28:27;85364.11;;;11.50;29.25
40948;BME280;49382;-25.924;28.194;2023-06-19T05:30:53;85363.76;;;12.60;28.84
40948;BME280;49382;-25.924;28.194;2023-06-19T05:33:19;85362.51;;;12.37;28.49
40948;BME280;49382;-25.924;28.194;2023-06-19T05:35:44;85367.54;;;12.46;28.47
40948;BME280;49382;-25.924;28.194;2023-06-19T05:38:09;85368.98;;;13.24;27.62
40948;BME280;49382;-25.924;28.194;2023-06-19T05:40:34;85370.37;;;13.16;27.92
40948;BME280;49382;-25.924;28.194;2023-06-19T05:43:00;85370.66;;;13.01;28.45
40948;BME280;49382;-25.924;28.194;2023-06-19T05:45:25;85368.03;;;12.43;29.61
40948;BME280;49382;-25.924;28.194;2023-06-19T05:47:50;85363.30;;;12.58;29.54
40948;BME280;49382;-25.924;28.194;2023-06-19T05:50:16;85363.27;;;12.86;29.38
40948;BME280;49382;-25.924;28.194;2023-06-19T05:52:42;85360.66;;;12.44;30.41
40948;BME280;49382;-25.924;28.194;2023-06-19T05:55:08;85361.97;;;12.19;29.97
40948;BME280;49382;-25.924;28.194;2023-06-19T05:57:33;85363.62;;;13.15;30.15
40948;BME280;49382;-25.924;28.194;2023-06-19T05:59:58;85359.91;;;13.58;28.80
40948;BME280;49382;-25.924;28.194;2023-06-19T06:02:24;85358.01;;;13.73;29.27
40948;BME280;49382;-25.924;28.194;2023-06-19T06:04:49;85358.52;;;14.72;27.77
40948;BME280;49382;-25.924;28.194;2023-06-19T06:07:15;85357.04;;;14.85;27.66
40948;BME280;49382;-25.924;28.194;2023-06-19T06:09:40;85361.19;;;15.02;26.37
40948;BME280;49382;-25.924;28.194;2023-06-19T06:12:07;85354.89;;;15.02;26.78
40948;BME280;49382;-25.924;28.194;2023-06-19T06:14:31;85362.26;;;15.66;26.92
40948;BME280;49382;-25.924;28.194;2023-06-19T06:16:56;85363.50;;;15.80;25.70
40948;BME280;49382;-25.924;28.194;2023-06-19T06:19:22;85360.47;;;16.47;25.64
40948;BME280;49382;-25.924;28.194;2023-06-19T06:21:47;85363.03;;;17.20;24.70
40948;BME280;49382;-25.924;28.194;2023-06-19T06:24:13;85363.75;;;17.27;24.53
40948;BME280;49382;-25.924;28.194;2023-06-19T06:26:38;85365.61;;;17.36;25.08
40948;BME280;49382;-25.924;28.194;2023-06-19T06:29:03;85364.77;;;17.50;25.44
40948;BME280;49382;-25.924;28.194;2023-06-19T06:31:29;85367.91;;;18.01;24.22
40948;BME280;49382;-25.924;28.194;2023-06-19T06:33:55;85372.16;;;18.82;23.56
40948;BME280;49382;-25.924;28.194;2023-06-19T06:36:20;85375.38;;;17.62;25.78
40948;BME280;49382;-25.924;28.194;2023-06-19T06:38:45;85369.13;;;19.41;23.65
40948;BME280;49382;-25.924;28.194;2023-06-19T06:41:11;85372.41;;;22.88;20.55
40948;BME280;49382;-25.924;28.194;2023-06-19T06:43:36;85377.06;;;26.88;16.47
40948;BME280;49382;-25.924;28.194;2023-06-19T06:46:01;85379.49;;;30.15;14.01
40948;BME280;49382;-25.924;28.194;2023-06-19T06:48:27;85378.30;;;31.75;12.76
40948;BME280;49382;-25.924;28.194;2023-06-19T06:50:52;85377.19;;;32.04;11.24
40948;BME280;49382;-25.924;28.194;2023-06-19T06:53:18;85380.79;;;32.21;11.26
40948;BME280;49382;-25.924;28.194;2023-06-19T06:55:43;85384.55;;;34.77;9.85
40948;BME280;49382;-25.924;28.194;2023-06-19T06:58:09;85380.69;;;35.45;8.33
40948;BME280;49382;-25.924;28.194;2023-06-19T07:00:34;85379.71;;;34.88;8.85
40948;BME280;49382;-25.924;28.194;2023-06-19T07:03:00;85379.98;;;36.15;7.90
40948;BME280;49382;-25.924;28.194;2023-06-19T07:05:26;85379.75;;;36.56;7.28
40948;BME280;49382;-25.924;28.194;2023-06-19T07:07:51;85381.95;;;38.88;6.27
40948;BME280;49382;-25.924;28.194;2023-06-19T07:10:16;85379.16;;;36.28;7.01
40948;BME280;49382;-25.924;28.194;2023-06-19T07:12:46;85378.57;;;35.27;7.41
40948;BME280;49382;-25.924;28.194;2023-06-19T07:15:07;85382.28;;;37.71;6.45
40948;BME280;49382;-25.924;28.194;2023-06-19T07:17:31;85383.82;;;36.85;7.04
40948;BME280;49382;-25.924;28.194;2023-06-19T07:19:57;85381.58;;;36.55;6.82
40948;BME280;49382;-25.924;28.194;2023-06-19T07:22:22;85385.22;;;39.74;5.96
40948;BME280;49382;-25.924;28.194;2023-06-19T07:24:48;85379.78;;;41.08;4.78
40948;BME280;49382;-25.924;28.194;2023-06-19T07:27:13;85377.53;;;36.63;6.48
40948;BME280;49382;-25.924;28.194;2023-06-19T07:29:39;85374.84;;;37.17;5.81
40948;BME280;49382;-25.924;28.194;2023-06-19T07:32:05;85373.05;;;40.42;4.78
40948;BME280;49382;-25.924;28.194;2023-06-19T07:34:30;85372.45;;;40.89;4.70
40948;BME280;49382;-25.924;28.194;2023-06-19T07:36:55;85370.90;;;42.13;4.29
40948;BME280;49382;-25.924;28.194;2023-06-19T07:39:21;85370.75;;;40.83;5.04
40948;BME280;49382;-25.924;28.194;2023-06-19T07:41:46;85375.13;;;41.57;4.70
40948;BME280;49382;-25.924;28.194;2023-06-19T07:44:12;85373.12;;;37.61;5.38
40948;BME280;49382;-25.924;28.194;2023-06-19T07:46:38;85373.55;;;41.37;4.51
40948;BME280;49382;-25.924;28.194;2023-06-19T07:49:03;85363.91;;;36.48;5.77
40948;BME280;49382;-25.924;28.194;2023-06-19T07:51:29;85362.12;;;40.67;4.39
40948;BME280;49382;-25.924;28.194;2023-06-19T07:53:54;85364.02;;;42.96;4.46
40948;BME280;49382;-25.924;28.194;2023-06-19T07:56:20;85355.34;;;37.57;5.40
40948;BME280;49382;-25.924;28.194;2023-06-19T07:58:46;85355.24;;;41.09;4.25
40948;BME280;49382;-25.924;28.194;2023-06-19T08:01:12;85348.77;;;40.23;4.53
40948;BME280;49382;-25.924;28.194;2023-06-19T08:03:37;85348.35;;;38.10;5.88
40948;BME280;49382;-25.924;28.194;2023-06-19T08:06:02;85348.81;;;44.46;3.07
40948;BME280;49382;-25.924;28.194;2023-06-19T08:08:27;85346.96;;;46.69;2.75
40948;BME280;49382;-25.924;28.194;2023-06-19T08:10:53;85339.67;;;39.48;4.71
40948;BME280;49382;-25.924;28.194;2023-06-19T08:13:19;85342.21;;;45.29;3.09
40948;BME280;49382;-25.924;28.194;2023-06-19T08:15:44;85340.44;;;41.18;4.24
40948;BME280;49382;-25.924;28.194;2023-06-19T08:18:10;85345.92;;;43.92;3.86
40948;BME280;49382;-25.924;28.194;2023-06-19T08:20:36;85343.53;;;45.98;2.82
40948;BME280;49382;-25.924;28.194;2023-06-19T08:23:02;85345.23;;;42.36;3.76
40948;BME280;49382;-25.924;28.194;2023-06-19T08:25:27;85344.73;;;46.48;2.78
40948;BME280;49382;-25.924;28.194;2023-06-19T08:27:53;85344.15;;;44.87;3.01
40948;BME280;49382;-25.924;28.194;2023-06-19T08:30:19;85341.85;;;41.74;3.81
40948;BME280;49382;-25.924;28.194;2023-06-19T08:32:45;85333.83;;;38.78;5.31
40948;BME280;49382;-25.924;28.194;2023-06-19T08:35:16;85335.38;;;40.80;4.39
40948;BME280;49382;-25.924;28.194;2023-06-19T08:37:38;85329.21;;;37.82;5.14
40948;BME280;49382;-25.924;28.194;2023-06-19T08:40:07;85322.14;;;41.20;4.32
40948;BME280;49382;-25.924;28.194;2023-06-19T08:42:33;85314.97;;;38.13;5.30
40948;BME280;49382;-25.924;28.194;2023-06-19T08:44:56;85321.96;;;46.83;2.82
40948;BME280;49382;-25.924;28.194;2023-06-19T08:47:23;85320.00;;;46.89;2.54
40948;BME280;49382;-25.924;28.194;2023-06-19T08:49:50;85324.39;;;47.83;2.38
40948;BME280;49382;-25.924;28.194;2023-06-19T08:52:17;85319.54;;;47.34;2.32
40948;BME280;49382;-25.924;28.194;2023-06-19T08:54:41;85317.07;;;48.04;2.10
40948;BME280;49382;-25.924;28.194;2023-06-19T08:57:06;85310.07;;;47.29;2.08
40948;BME280;49382;-25.924;28.194;2023-06-19T08:59:31;85313.78;;;49.06;1.87
40948;BME280;49382;-25.924;28.194;2023-06-19T09:01:57;85302.31;;;43.81;3.33
40948;BME280;49382;-25.924;28.194;2023-06-19T09:04:26;85307.95;;;48.59;2.28
40948;BME280;49382;-25.924;28.194;2023-06-19T09:06:52;85299.20;;;47.06;2.66
40948;BME280;49382;-25.924;28.194;2023-06-19T09:09:13;85292.21;;;43.49;2.98
40948;BME280;49382;-25.924;28.194;2023-06-19T09:11:38;85293.14;;;46.60;2.42
40948;BME280;49382;-25.924;28.194;2023-06-19T09:14:04;85280.23;;;43.45;3.31
40948;BME280;49382;-25.924;28.194;2023-06-19T09:18:59;85257.03;;;33.61;6.52
40948;BME280;49382;-25.924;28.194;2023-06-19T09:21:23;85253.35;;;32.89;7.89
40948;BME280;49382;-25.924;28.194;2023-06-19T09:23:50;85247.23;;;32.25;8.81
40948;BME280;49382;-25.924;28.194;2023-06-19T09:26:15;85244.85;;;31.46;9.32
40948;BME280;49382;-25.924;28.194;2023-06-19T09:28:43;85235.41;;;29.42;10.19
40948;BME280;49382;-25.924;28.194;2023-06-19T09:31:05;85233.53;;;29.94;10.86
40948;BME280;49382;-25.924;28.194;2023-06-19T09:33:31;85227.47;;;28.80;10.81
40948;BME280;49382;-25.924;28.194;2023-06-19T09:35:57;85225.76;;;29.53;11.18
40948;BME280;49382;-25.924;28.194;2023-06-19T09:38:23;85220.92;;;28.24;11.54
40948;BME280;49382;-25.924;28.194;2023-06-19T09:40:47;85224.61;;;26.50;12.13
40948;BME280;49382;-25.924;28.194;2023-06-19T09:43:13;85215.66;;;27.68;11.88
40948;BME280;49382;-25.924;28.194;2023-06-19T09:45:37;85222.54;;;25.72;13.90
40948;BME280;49382;-25.924;28.194;2023-06-19T09:48:03;85215.74;;;28.48;12.01
40948;BME280;49382;-25.924;28.194;2023-06-19T09:50:31;85217.65;;;27.63;12.98
40948;BME280;49382;-25.924;28.194;2023-06-19T09:52:54;85215.80;;;27.65;11.95
40948;BME280;49382;-25.924;28.194;2023-06-19T09:55:21;85209.76;;;27.12;12.56
40948;BME280;49382;-25.924;28.194;2023-06-19T09:57:46;85207.31;;;27.28;12.92
40948;BME280;49382;-25.924;28.194;2023-06-19T10:00:11;85207.18;;;26.44;13.73
40948;BME280;49382;-25.924;28.194;2023-06-19T10:02:36;85208.27;;;26.93;13.68
40948;BME280;49382;-25.924;28.194;2023-06-19T10:05:02;85206.24;;;27.13;13.45
40948;BME280;49382;-25.924;28.194;2023-06-19T10:09:58;85203.16;;;26.52;13.64
40948;BME280;49382;-25.924;28.194;2023-06-19T10:12:19;85197.55;;;25.95;13.77
40948;BME280;49382;-25.924;28.194;2023-06-19T10:14:48;85197.30;;;27.34;12.97
40948;BME280;49382;-25.924;28.194;2023-06-19T10:17:16;85196.65;;;27.03;13.73
40948;BME280;49382;-25.924;28.194;2023-06-19T10:19:36;85193.70;;;27.10;14.07
40948;BME280;49382;-25.924;28.194;2023-06-19T10:22:07;85187.45;;;27.05;13.21
40948;BME280;49382;-25.924;28.194;2023-06-19T10:24:28;85178.14;;;26.79;13.87
40948;BME280;49382;-25.924;28.194;2023-06-19T10:26:59;85170.52;;;26.77;13.41
40948;BME280;49382;-25.924;28.194;2023-06-19T10:29:21;85171.07;;;26.92;13.96
40948;BME280;49382;-25.924;28.194;2023-06-19T10:31:44;85165.09;;;27.07;13.92
40948;BME280;49382;-25.924;28.194;2023-06-19T10:34:12;85157.17;;;26.27;14.28
40948;BME280;49382;-25.924;28.194;2023-06-19T10:36:36;85148.01;;;26.25;13.81
40948;BME280;49382;-25.924;28.194;2023-06-19T10:39:02;85140.46;;;26.35;13.17
40948;BME280;49382;-25.924;28.194;2023-06-19T10:41:27;85141.15;;;26.67;12.99
40948;BME280;49382;-25.924;28.194;2023-06-19T10:43:57;85140.43;;;25.90;14.15
40948;BME280;49382;-25.924;28.194;2023-06-19T10:46:22;85137.76;;;26.29;13.69
40948;BME280;49382;-25.924;28.194;2023-06-19T10:48:44;85134.96;;;26.80;13.47
40948;BME280;49382;-25.924;28.194;2023-06-19T10:51:09;85130.63;;;25.91;13.51
40948;BME280;49382;-25.924;28.194;2023-06-19T10:53:36;85121.50;;;25.23;13.72
40948;BME280;49382;-25.924;28.194;2023-06-19T10:56:03;85121.80;;;25.65;13.25
40948;BME280;49382;-25.924;28.194;2023-06-19T10:58:29;85120.01;;;26.04;13.28
40948;BME280;49382;-25.924;28.194;2023-06-19T11:00:46;85109.81;;;23.44;14.47
40948;BME280;49382;-25.924;28.194;2023-06-19T11:03:12;85104.38;;;23.81;14.13
40948;BME280;49382;-25.924;28.194;2023-06-19T11:05:43;85105.03;;;23.63;14.16
40948;BME280;49382;-25.924;28.194;2023-06-19T11:08:04;85102.23;;;24.46;14.12
40948;BME280;49382;-25.924;28.194;2023-06-19T11:10:30;85099.62;;;25.27;13.55
40948;BME280;49382;-25.924;28.194;2023-06-19T11:12:56;85101.83;;;25.52;13.79
40948;BME280;49382;-25.924;28.194;2023-06-19T11:15:20;85094.10;;;24.92;13.83
40948;BME280;49382;-25.924;28.194;2023-06-19T11:17:45;85098.77;;;25.65;13.67
40948;BME280;49382;-25.924;28.194;2023-06-19T11:20:12;85089.11;;;24.72;13.82
40948;BME280;49382;-25.924;28.194;2023-06-19T11:22:40;85086.68;;;24.94;14.23
40948;BME280;49382;-25.924;28.194;2023-06-19T11:25:03;85083.00;;;24.53;13.95
40948;BME280;49382;-25.924;28.194;2023-06-19T11:27:26;85084.64;;;24.66;13.61
40948;BME280;49382;-25.924;28.194;2023-06-19T11:29:56;85084.53;;;24.61;13.54
40948;BME280;49382;-25.924;28.194;2023-06-19T11:32:17;85076.35;;;23.98;13.72
40948;BME280;49382;-25.924;28.194;2023-06-19T11:34:41;85074.51;;;24.83;13.70
40948;BME280;49382;-25.924;28.194;2023-06-19T11:37:12;85073.49;;;24.25;13.48
40948;BME280;49382;-25.924;28.194;2023-06-19T11:39:32;85071.78;;;24.23;13.37
40948;BME280;49382;-25.924;28.194;2023-06-19T11:41:59;85071.78;;;24.55;13.24
40948;BME280;49382;-25.924;28.194;2023-06-19T11:44:22;85069.55;;;24.88;13.21
40948;BME280;49382;-25.924;28.194;2023-06-19T11:46:47;85073.75;;;25.05;13.26
40948;BME280;49382;-25.924;28.194;2023-06-19T11:49:14;85073.07;;;25.06;13.19
40948;BME280;49382;-25.924;28.194;2023-06-19T11:51:39;85074.72;;;25.40;13.27
40948;BME280;49382;-25.924;28.194;2023-06-19T11:54:06;85073.86;;;25.76;12.89
40948;BME280;49382;-25.924;28.194;2023-06-19T11:56:30;85071.05;;;25.03;13.11
40948;BME280;49382;-25.924;28.194;2023-06-19T11:58:56;85073.69;;;25.13;13.26
40948;BME280;49382;-25.924;28.194;2023-06-19T12:01:21;85067.32;;;24.89;13.47
40948;BME280;49382;-25.924;28.194;2023-06-19T12:03:47;85068.54;;;24.17;13.18
40948;BME280;49382;-25.924;28.194;2023-06-19T12:06:12;85073.51;;;23.81;13.95
40948;BME280;49382;-25.924;28.194;2023-06-19T12:08:38;85072.94;;;23.26;13.88
40948;BME280;49382;-25.924;28.194;2023-06-19T12:11:03;85068.28;;;23.58;13.66
40948;BME280;49382;-25.924;28.194;2023-06-19T12:13:29;85070.64;;;24.48;13.48
40948;BME280;49382;-25.924;28.194;2023-06-19T12:15:54;85074.12;;;23.70;13.95
40948;BME280;49382;-25.924;28.194;2023-06-19T12:18:19;85076.46;;;23.86;13.69
40948;BME280;49382;-25.924;28.194;2023-06-19T12:20:45;85076.49;;;24.13;13.72
40948;BME280;49382;-25.924;28.194;2023-06-19T12:23:10;85068.36;;;23.83;13.47
40948;BME280;49382;-25.924;28.194;2023-06-19T12:25:36;85070.09;;;23.73;13.50
40948;BME280;49382;-25.924;28.194;2023-06-19T12:28:01;85072.85;;;24.17;13.30
40948;BME280;49382;-25.924;28.194;2023-06-19T12:30:26;85072.70;;;23.34;13.82
40948;BME280;49382;-25.924;28.194;2023-06-19T12:32:51;85067.72;;;23.01;13.72
40948;BME280;49382;-25.924;28.194;2023-06-19T12:35:17;85072.71;;;24.22;13.26
40948;BME280;49382;-25.924;28.194;2023-06-19T12:37:42;85068.13;;;24.48;13.19